createdAt,value
2023-02-19T08:04:34.584Z,2.50
2023-02-19T08:07:15.142Z,3.00
2023-02-19T08:10:05.815Z,3.20
2023-02-19T08:12:55.132Z,3.10
2023-02-19T08:15:35.974Z,2.90
2023-02-19T08:18:15.299Z,2.30
2023-02-19T08:21:04.641Z,3.00
2023-02-19T08:23:40.284Z,2.20
2023-02-19T08:26:16.101Z,1.80
2023-02-19T08:29:08.558Z,1.90
2023-02-19T08:32:05.044Z,2.00
2023-02-19T08:34:53.682Z,2.60
2023-02-19T08:37:39.030Z,2.30
2023-02-19T08:40:19.726Z,0.90
2023-02-19T08:42:51.351Z,2.10
2023-02-19T08:45:24.110Z,2.10
2023-02-19T08:48:00.448Z,1.90
2023-02-19T08:50:36.302Z,1.20
2023-02-19T08:53:08.056Z,1.60
2023-02-19T08:55:44.458Z,1.80
2023-02-19T08:58:34.374Z,1.70
2023-02-19T09:01:10.796Z,0.80
2023-02-19T09:03:48.055Z,0.70
2023-02-19T09:06:23.468Z,1.30
2023-02-19T09:09:13.709Z,0.60
2023-02-19T09:11:50.274Z,1.60
2023-02-19T09:14:39.584Z,0.80
2023-02-19T09:17:17.765Z,0.60
2023-02-19T09:19:54.737Z,0.90
2023-02-19T09:22:28.524Z,0.90
2023-02-19T09:24:58.883Z,1.10
2023-02-19T09:27:32.451Z,1.20
2023-02-19T09:30:28.992Z,1.40
2023-02-19T09:33:16.756Z,0.70
2023-02-19T09:36:10.081Z,1.10
2023-02-19T09:38:40.027Z,1.00
2023-02-19T09:41:28.955Z,0.60
2023-02-19T09:44:21.421Z,0.60
2023-02-19T09:47:04.509Z,0.70
2023-02-19T09:49:50.214Z,0.60
2023-02-19T09:52:37.117Z,0.80
2023-02-19T09:55:26.973Z,0.40
2023-02-19T09:58:37.477Z,0.60
2023-02-19T10:01:38.635Z,0.70
2023-02-19T10:04:15.794Z,0.50
2023-02-19T10:06:47.654Z,0.30
2023-02-19T10:09:23.925Z,0.80
2023-02-19T10:12:18.839Z,0.20
2023-02-19T10:14:55.942Z,0.70
2023-02-19T10:17:37.801Z,1.00
2023-02-19T10:20:20.180Z,0.20
2023-02-19T10:23:16.347Z,0.50
2023-02-19T10:25:56.802Z,0.40
2023-02-19T10:28:55.490Z,0.40
2023-02-19T10:31:34.008Z,0.70
2023-02-19T10:34:23.302Z,0.50
2023-02-19T10:37:15.947Z,0.50
2023-02-19T10:39:56.394Z,0.30
2023-02-19T10:42:46.341Z,0.10
2023-02-19T10:45:53.263Z,0.50
2023-02-19T10:48:30.710Z,0.40
2023-02-19T10:51:21.777Z,0.50
2023-02-19T10:54:05.982Z,0.80
2023-02-19T10:56:45.649Z,0.30
2023-02-19T10:59:36.840Z,0.70
2023-02-19T11:02:21.256Z,0.30
2023-02-19T11:05:14.907Z,0.20
2023-02-19T11:08:05.591Z,0.50
2023-02-19T11:10:45.243Z,1.10
2023-02-19T11:13:46.056Z,0.20
2023-02-19T11:16:16.886Z,0.10
2023-02-19T11:18:57.397Z,0.50
2023-02-19T11:21:37.465Z,0.80
2023-02-19T11:24:34.875Z,0.50
2023-02-19T11:27:15.530Z,0.90
2023-02-19T11:29:49.195Z,0.70
2023-02-19T11:32:42.828Z,0.60
2023-02-19T11:35:25.392Z,1.10
2023-02-19T11:38:15.523Z,0.40
2023-02-19T11:41:11.663Z,1.60
2023-02-19T11:44:30.469Z,0.30
2023-02-19T11:47:31.705Z,0.70
2023-02-19T11:50:48.998Z,0.60
2023-02-19T11:53:34.570Z,0.50
2023-02-19T11:56:36.573Z,0.70
2023-02-19T11:59:48.196Z,0.30
2023-02-19T12:02:57.647Z,0.30
2023-02-19T12:06:13.457Z,0.20
2023-02-19T12:09:03.036Z,0.40
2023-02-19T12:12:24.455Z,0.10
2023-02-19T12:15:20.265Z,0.20
2023-02-19T12:18:15.998Z,0.00
2023-02-19T12:21:05.875Z,0.10
2023-02-19T12:24:16.485Z,0.40
2023-02-19T12:27:21.636Z,0.10
2023-02-19T12:30:17.166Z,0.00
2023-02-19T12:33:09.517Z,0.00
2023-02-19T12:36:06.597Z,0.10
2023-02-19T12:38:56.210Z,0.20
2023-02-19T12:41:32.648Z,0.00
2023-02-19T12:44:32.136Z,0.00
2023-02-19T12:47:07.074Z,0.00
2023-02-19T12:52:41.185Z,0.00
2023-02-19T12:55:39.974Z,0.20
2023-02-19T12:58:40.808Z,0.10
2023-02-19T13:01:26.640Z,0.00
2023-02-19T13:04:46.367Z,0.00
2023-02-19T13:07:51.179Z,0.20
2023-02-19T13:10:57.355Z,0.40
2023-02-19T13:13:49.310Z,0.00
2023-02-19T13:16:30.601Z,0.00
2023-02-19T13:19:11.760Z,0.40
2023-02-19T13:22:22.332Z,0.00
2023-02-19T13:24:58.742Z,0.00
2023-02-19T13:27:59.459Z,0.10
2023-02-19T13:30:53.372Z,0.00
2023-02-19T13:34:09.178Z,0.00
2023-02-19T13:36:48.853Z,0.00
2023-02-19T13:39:31.391Z,0.00
2023-02-19T13:42:40.145Z,0.00
2023-02-19T13:45:28.393Z,0.10
2023-02-19T13:48:38.478Z,0.50
2023-02-19T13:51:24.086Z,0.40
2023-02-19T13:54:14.643Z,0.70
2023-02-19T13:57:18.525Z,1.20
2023-02-19T14:00:02.323Z,0.50
2023-02-19T14:03:38.179Z,0.70
2023-02-19T14:06:17.445Z,0.00
2023-02-19T14:09:00.424Z,0.80
2023-02-19T14:12:35.776Z,0.30
2023-02-19T14:15:49.687Z,0.80
2023-02-19T14:18:50.460Z,0.40
2023-02-19T14:21:34.425Z,0.90
2023-02-19T14:24:25.886Z,0.50
2023-02-19T14:27:06.170Z,0.60
2023-02-19T14:29:58.814Z,0.60
2023-02-19T14:32:36.320Z,0.40
2023-02-19T14:35:38.281Z,0.20
2023-02-19T14:38:53.700Z,0.30
2023-02-19T14:41:30.144Z,1.00
2023-02-19T14:44:18.781Z,0.50
2023-02-19T14:47:09.634Z,0.70
2023-02-19T14:49:54.665Z,0.40
2023-02-19T14:53:00.973Z,1.00
2023-02-19T14:56:00.518Z,0.40
2023-02-19T15:01:34.723Z,0.90
2023-02-19T15:04:31.566Z,2.20
2023-02-19T15:07:21.676Z,0.90
2023-02-19T15:10:05.887Z,0.70
2023-02-19T15:13:17.532Z,0.70
2023-02-19T15:15:49.802Z,0.90
2023-02-19T15:18:25.446Z,0.80
2023-02-19T15:21:37.554Z,0.90
2023-02-19T15:24:18.212Z,1.90
2023-02-19T15:26:56.716Z,0.60
2023-02-19T15:29:53.469Z,1.30
2023-02-19T15:32:28.572Z,0.70
2023-02-19T15:35:04.684Z,0.30
2023-02-19T15:37:40.622Z,1.20
2023-02-19T15:40:33.184Z,0.80
2023-02-19T15:43:37.900Z,2.40
2023-02-19T15:46:29.511Z,1.70
2023-02-19T15:49:33.305Z,0.80
2023-02-19T15:52:31.103Z,0.60
2023-02-19T15:55:14.055Z,0.50
2023-02-19T15:58:51.916Z,0.60
2023-02-19T16:01:38.286Z,0.80
2023-02-19T16:04:22.485Z,0.80
2023-02-19T16:06:59.845Z,2.90
2023-02-19T16:09:42.540Z,2.00
2023-02-19T16:12:24.988Z,1.50
2023-02-19T16:15:13.929Z,0.80
2023-02-19T16:17:47.860Z,0.60
2023-02-19T16:20:40.589Z,1.00
2023-02-19T16:23:27.393Z,0.40
2023-02-19T16:26:03.243Z,0.60
2023-02-19T16:28:59.019Z,1.30
2023-02-19T16:31:37.431Z,1.80
2023-02-19T16:34:40.185Z,1.80
2023-02-19T16:37:31.987Z,1.10
2023-02-19T16:40:57.110Z,1.10
2023-02-19T16:43:42.683Z,2.90
2023-02-19T16:46:13.793Z,2.60
2023-02-19T16:49:11.665Z,2.10
2023-02-19T16:51:46.401Z,2.70
2023-02-19T16:54:18.996Z,4.00
2023-02-19T16:56:47.348Z,3.30
2023-02-19T16:59:36.244Z,3.00
2023-02-19T17:02:26.186Z,2.70
2023-02-19T17:07:42.438Z,3.70
2023-02-19T17:10:31.259Z,3.70
2023-02-19T17:13:03.313Z,4.90
2023-02-19T17:15:54.641Z,3.30
2023-02-19T17:18:29.639Z,2.10
2023-02-19T17:21:18.366Z,2.70
2023-02-19T17:24:09.227Z,1.90
2023-02-19T17:26:43.492Z,2.80
2023-02-19T17:29:35.417Z,3.70
2023-02-19T17:32:15.307Z,4.70
2023-02-19T17:34:49.784Z,4.90
2023-02-19T17:37:31.844Z,6.60
2023-02-19T17:40:04.723Z,5.20
2023-02-19T17:42:39.933Z,6.10
2023-02-19T17:45:12.630Z,4.40
